sensor_id;sensor_type;location;lat;lon;timestamp;pressure;altitude;pressure_sealevel;temperature;humidity
59654;BME280;66556;52.008;5.432;2023-06-24T00:01:00;102395.0;;;38.6;22.06
59654;BME280;66556;52.008;5.432;2023-06-24T00:02:36;102396.0;;;38.68;21.91
59654;BME280;66556;52.008;5.432;2023-06-24T00:07:25;102396.0;;;38.78;21.82
59654;BME280;66556;52.008;5.432;2023-06-24T00:09:01;102399.0;;;38.92;21.65
59654;BME280;66556;52.008;5.432;2023-06-24T00:12:13;102399.0;;;39.19;21.23
59654;BME280;66556;52.008;5.432;2023-06-24T00:13:49;102404.0;;;38.93;21.48
59654;BME280;66556;52.008;5.432;2023-06-24T00:15:25;102408.0;;;38.53;21.83
59654;BME280;66556;52.008;5.432;2023-06-24T00:17:02;102418.0;;;39.19;20.86
59654;BME280;66556;52.008;5.432;2023-06-24T00:20:14;102419.0;;;39.21;21.71
59654;BME280;66556;52.008;5.432;2023-06-24T00:21:51;102434.99999999999;;;39.33;21.13
59654;BME280;66556;52.008;5.432;2023-06-24T00:23:28;102417.0;;;39.89;21.0
59654;BME280;66556;52.008;5.432;2023-06-24T00:26:43;102424.0;;;39.62;21.38
59654;BME280;66556;52.008;5.432;2023-06-24T00:28:19;102428.0;;;39.61;21.34
59654;BME280;66556;52.008;5.432;2023-06-24T00:29:55;102426.0;;;39.64;21.26
59654;BME280;66556;52.008;5.432;2023-06-24T00:33:07;102423.0;;;39.39;21.49
59654;BME280;66556;52.008;5.432;2023-06-24T00:34:43;102422.0;;;39.76;21.03
59654;BME280;66556;52.008;5.432;2023-06-24T00:36:20;102423.0;;;38.94;21.83
59654;BME280;66556;52.008;5.432;2023-06-24T00:37:57;102421.0;;;39.33;21.44
59654;BME280;66556;52.008;5.432;2023-06-24T00:41:09;102419.0;;;39.76;21.02
59654;BME280;66556;52.008;5.432;2023-06-24T00:42:46;102418.0;;;39.87;20.73
59654;BME280;66556;52.008;5.432;2023-06-24T00:44:22;102414.00000000001;;;39.9;20.82
59654;BME280;66556;52.008;5.432;2023-06-24T00:47:36;102415.00000000001;;;39.72;20.93
59654;BME280;66556;52.008;5.432;2023-06-24T00:49:12;102417.0;;;39.28;21.42
59654;BME280;66556;52.008;5.432;2023-06-24T00:50:48;102418.0;;;38.75;22.01
59654;BME280;66556;52.008;5.432;2023-06-24T00:54:01;102420.0;;;38.89;21.98
59654;BME280;66556;52.008;5.432;2023-06-24T00:55:37;102418.0;;;38.81;22.08
59654;BME280;66556;52.008;5.432;2023-06-24T00:57:15;102416.00000000001;;;39.01;21.76
59654;BME280;66556;52.008;5.432;2023-06-24T01:00:28;102420.0;;;39.31;21.57
59654;BME280;66556;52.008;5.432;2023-06-24T01:02:05;102409.99999999999;;;40.42;20.27
59654;BME280;66556;52.008;5.432;2023-06-24T01:03:41;102409.99999999999;;;39.89;20.73
59654;BME280;66556;52.008;5.432;2023-06-24T01:05:17;102408.99999999999;;;39.46;21.06
59654;BME280;66556;52.008;5.432;2023-06-24T01:08:31;102402.0;;;39.53;21.16
59654;BME280;66556;52.008;5.432;2023-06-24T01:10:08;102405.0;;;39.69;20.78
59654;BME280;66556;52.008;5.432;2023-06-24T01:11:45;102407.0;;;40.14;20.34
59654;BME280;66556;52.008;5.432;2023-06-24T01:14:58;102406.0;;;39.6;20.84
59654;BME280;66556;52.008;5.432;2023-06-24T01:16:44;102408.0;;;39.21;21.16
59654;BME280;66556;52.008;5.432;2023-06-24T01:18:34;102404.0;;;39.32;20.97
59654;BME280;66556;52.008;5.432;2023-06-24T01:20:21;102398.0;;;39.96;20.43
59654;BME280;66556;52.008;5.432;2023-06-24T01:22:06;102401.0;;;39.18;21.19
59654;BME280;66556;52.008;5.432;2023-06-24T01:24:17;102402.0;;;38.93;21.55
59654;BME280;66556;52.008;5.432;2023-06-24T01:26:51;102403.0;;;38.43;21.79
59654;BME280;66556;52.008;5.432;2023-06-24T01:30:12;102403.0;;;39.42;20.96
59654;BME280;66556;52.008;5.432;2023-06-24T01:31:55;102396.0;;;39.74;20.54
59654;BME280;66556;52.008;5.432;2023-06-24T01:33:39;102393.0;;;39.49;20.52
59654;BME280;66556;52.008;5.432;2023-06-24T01:35:21;102394.0;;;39.15;20.95
59654;BME280;66556;52.008;5.432;2023-06-24T01:37:08;102394.0;;;39.06;21.09
59654;BME280;66556;52.008;5.432;2023-06-24T01:38:58;102395.0;;;38.99;21.14
59654;BME280;66556;52.008;5.432;2023-06-24T01:42:21;102393.0;;;38.9;21.27
59654;BME280;66556;52.008;5.432;2023-06-24T01:43:59;102391.0;;;39.17;21.08
59654;BME280;66556;52.008;5.432;2023-06-24T01:45:38;102396.0;;;37.74;22.62
59654;BME280;66556;52.008;5.432;2023-06-24T01:50:39;102393.0;;;37.06;23.39
59654;BME280;66556;52.008;5.432;2023-06-24T01:52:20;102389.0;;;36.17;24.21
59654;BME280;66556;52.008;5.432;2023-06-24T01:54:01;102390.0;;;36.76;23.76
59654;BME280;66556;52.008;5.432;2023-06-24T01:55:41;102394.0;;;37.33;22.88
59654;BME280;66556;52.008;5.432;2023-06-24T01:58:58;102394.0;;;37.74;22.48
59654;BME280;66556;52.008;5.432;2023-06-24T02:00:36;102389.0;;;37.42;22.78
59654;BME280;66556;52.008;5.432;2023-06-24T02:02:13;102388.0;;;38.78;21.45
59654;BME280;66556;52.008;5.432;2023-06-24T02:03:51;102388.0;;;38.4;21.5
59654;BME280;66556;52.008;5.432;2023-06-24T02:07:09;102388.0;;;38.21;21.8
59654;BME280;66556;52.008;5.432;2023-06-24T02:08:48;102389.0;;;38.17;21.62
59654;BME280;66556;52.008;5.432;2023-06-24T02:10:27;102389.0;;;37.96;22.23
59654;BME280;66556;52.008;5.432;2023-06-24T02:12:05;102389.0;;;38.32;21.78
59654;BME280;66556;52.008;5.432;2023-06-24T02:15:21;102384.0;;;38.17;21.76
59654;BME280;66556;52.008;5.432;2023-06-24T02:17:00;102383.0;;;38.39;21.71
59654;BME280;66556;52.008;5.432;2023-06-24T02:18:38;102383.0;;;38.08;22.08
59654;BME280;66556;52.008;5.432;2023-06-24T02:21:54;102380.0;;;37.97;22.14
59654;BME280;66556;52.008;5.432;2023-06-24T02:23:33;102381.0;;;38.4;21.47
59654;BME280;66556;52.008;5.432;2023-06-24T02:25:11;102375.0;;;38.75;21.19
59654;BME280;66556;52.008;5.432;2023-06-24T02:26:49;102377.0;;;38.36;21.53
59654;BME280;66556;52.008;5.432;2023-06-24T02:30:05;102376.0;;;38.06;21.98
59654;BME280;66556;52.008;5.432;2023-06-24T02:31:43;102380.0;;;37.49;22.55
59654;BME280;66556;52.008;5.432;2023-06-24T02:33:20;102378.0;;;37.79;22.18
59654;BME280;66556;52.008;5.432;2023-06-24T02:36:33;102368.0;;;37.37;22.73
59654;BME280;66556;52.008;5.432;2023-06-24T02:38:09;102375.0;;;37.67;22.31
59654;BME280;66556;52.008;5.432;2023-06-24T02:39:45;102368.0;;;37.31;22.73
59654;BME280;66556;52.008;5.432;2023-06-24T02:42:58;102377.0;;;37.06;23.04
59654;BME280;66556;52.008;5.432;2023-06-24T02:44:35;102376.0;;;38.14;21.9
59654;BME280;66556;52.008;5.432;2023-06-24T02:46:12;102372.0;;;38.06;22.08
59654;BME280;66556;52.008;5.432;2023-06-24T02:47:51;102371.0;;;38.64;21.3
59654;BME280;66556;52.008;5.432;2023-06-24T02:51:06;102370.0;;;38.61;21.16
59654;BME280;66556;52.008;5.432;2023-06-24T02:52:44;102371.0;;;37.74;21.98
59654;BME280;66556;52.008;5.432;2023-06-24T02:54:21;102369.0;;;37.01;22.84
59654;BME280;66556;52.008;5.432;2023-06-24T02:59:12;102363.0;;;37.19;22.82
59654;BME280;66556;52.008;5.432;2023-06-24T03:00:48;102364.0;;;37.46;22.39
59654;BME280;66556;52.008;5.432;2023-06-24T03:02:24;102363.0;;;37.25;22.43
59654;BME280;66556;52.008;5.432;2023-06-24T03:05:38;102365.0;;;37.69;22.05
59654;BME280;66556;52.008;5.432;2023-06-24T03:07:14;102361.0;;;38.01;22.19
59654;BME280;66556;52.008;5.432;2023-06-24T03:08:51;102363.0;;;38.17;21.74
59654;BME280;66556;52.008;5.432;2023-06-24T03:12:06;102362.0;;;37.9;22.16
59654;BME280;66556;52.008;5.432;2023-06-24T03:13:42;102361.0;;;38.26;21.56
59654;BME280;66556;52.008;5.432;2023-06-24T03:15:19;102363.0;;;36.92;22.98
59654;BME280;66556;52.008;5.432;2023-06-24T03:16:55;102361.0;;;37.03;23.04
59654;BME280;66556;52.008;5.432;2023-06-24T03:20:08;102362.0;;;36.89;22.94
59654;BME280;66556;52.008;5.432;2023-06-24T03:21:45;102368.0;;;37.24;22.45
59654;BME280;66556;52.008;5.432;2023-06-24T03:23:21;102372.0;;;36.56;23.2
59654;BME280;66556;52.008;5.432;2023-06-24T03:26:34;102380.0;;;36.92;22.95
59654;BME280;66556;52.008;5.432;2023-06-24T03:28:11;102380.0;;;37.21;22.54
59654;BME280;66556;52.008;5.432;2023-06-24T03:29:47;102382.0;;;38.17;21.67
59654;BME280;66556;52.008;5.432;2023-06-24T03:33:00;102383.0;;;38.25;21.51
59654;BME280;66556;52.008;5.432;2023-06-24T03:34:36;102385.0;;;37.92;22.16
59654;BME280;66556;52.008;5.432;2023-06-24T03:36:12;102381.0;;;36.96;22.91
59654;BME280;66556;52.008;5.432;2023-06-24T03:39:25;102378.0;;;37.71;22.06
59654;BME280;66556;52.008;5.432;2023-06-24T03:41:01;102373.0;;;36.97;22.62
59654;BME280;66556;52.008;5.432;2023-06-24T03:42:37;102371.0;;;37.28;22.33
59654;BME280;66556;52.008;5.432;2023-06-24T03:44:15;102377.0;;;37.24;22.37
59654;BME280;66556;52.008;5.432;2023-06-24T03:47:27;102376.0;;;37.56;22.32
59654;BME280;66556;52.008;5.432;2023-06-24T03:49:04;102367.0;;;37.86;22.08
59654;BME280;66556;52.008;5.432;2023-06-24T03:50:40;102368.0;;;37.85;21.98
59654;BME280;66556;52.008;5.432;2023-06-24T03:53:52;102366.0;;;37.44;22.35
59654;BME280;66556;52.008;5.432;2023-06-24T03:55:28;102366.0;;;37.17;22.51
59654;BME280;66556;52.008;5.432;2023-06-24T03:57:05;102367.0;;;37.62;22.19
59654;BME280;66556;52.008;5.432;2023-06-24T04:00:18;102373.0;;;37.42;22.32
59654;BME280;66556;52.008;5.432;2023-06-24T04:01:54;102370.0;;;38.35;21.52
59654;BME280;66556;52.008;5.432;2023-06-24T04:03:30;102378.0;;;37.97;21.77
59654;BME280;66556;52.008;5.432;2023-06-24T04:05:06;102378.0;;;38.1;21.51
59654;BME280;66556;52.008;5.432;2023-06-24T04:08:19;102384.0;;;38.18;21.47
59654;BME280;66556;52.008;5.432;2023-06-24T04:09:55;102389.0;;;37.74;22.05
59654;BME280;66556;52.008;5.432;2023-06-24T04:11:32;102388.0;;;37.61;22.18
59654;BME280;66556;52.008;5.432;2023-06-24T04:14:44;102384.0;;;38.07;21.79
59654;BME280;66556;52.008;5.432;2023-06-24T04:16:20;102389.0;;;37.92;21.93
59654;BME280;66556;52.008;5.432;2023-06-24T04:17:56;102387.0;;;37.93;22.12
59654;BME280;66556;52.008;5.432;2023-06-24T04:21:09;102386.0;;;38.43;21.57
59654;BME280;66556;52.008;5.432;2023-06-24T04:22:45;102390.0;;;37.78;22.32
59654;BME280;66556;52.008;5.432;2023-06-24T04:24:21;102389.0;;;37.81;22.49
59654;BME280;66556;52.008;5.432;2023-06-24T04:25:57;102388.0;;;38.74;21.38
59654;BME280;66556;52.008;5.432;2023-06-24T04:29:11;102392.0;;;38.58;21.62
59654;BME280;66556;52.008;5.432;2023-06-24T04:30:47;102389.0;;;38.56;21.46
59654;BME280;66556;52.008;5.432;2023-06-24T04:32:23;102388.0;;;39.17;21.22
59654;BME280;66556;52.008;5.432;2023-06-24T04:35:35;102385.0;;;38.33;21.73
59654;BME280;66556;52.008;5.432;2023-06-24T04:37:11;102389.0;;;38.53;21.71
59654;BME280;66556;52.008;5.432;2023-06-24T04:38:47;102388.0;;;39.36;20.99
59654;BME280;66556;52.008;5.432;2023-06-24T04:42:00;102386.0;;;39.82;20.65
59654;BME280;66556;52.008;5.432;2023-06-24T04:43:36;102392.0;;;39.6;20.83
59654;BME280;66556;52.008;5.432;2023-06-24T04:45:12;102389.0;;;40.12;20.53
59654;BME280;66556;52.008;5.432;2023-06-24T04:48:24;102387.0;;;39.36;21.39
59654;BME280;66556;52.008;5.432;2023-06-24T04:50:00;102393.0;;;39.08;21.63
59654;BME280;66556;52.008;5.432;2023-06-24T04:51:37;102395.0;;;39.03;21.79
59654;BME280;66556;52.008;5.432;2023-06-24T04:53:13;102393.0;;;39.51;21.53
59654;BME280;66556;52.008;5.432;2023-06-24T04:56:25;102389.0;;;39.71;21.31
59654;BME280;66556;52.008;5.432;2023-06-24T04:58:01;102390.0;;;39.14;22.04
59654;BME280;66556;52.008;5.432;2023-06-24T04:59:37;102394.0;;;39.49;21.84
59654;BME280;66556;52.008;5.432;2023-06-24T05:02:50;102402.0;;;39.26;22.09
59654;BME280;66556;52.008;5.432;2023-06-24T05:04:26;102399.0;;;39.6;21.7
59654;BME280;66556;52.008;5.432;2023-06-24T05:06:02;102401.0;;;39.6;21.64
59654;BME280;66556;52.008;5.432;2023-06-24T05:09:14;102394.0;;;40.06;21.34
59654;BME280;66556;52.008;5.432;2023-06-24T05:10:50;102395.0;;;40.46;20.99
59654;BME280;66556;52.008;5.432;2023-06-24T05:12:26;102394.0;;;40.75;20.92
59654;BME280;66556;52.008;5.432;2023-06-24T05:15:38;102400.0;;;40.6;21.18
59654;BME280;66556;52.008;5.432;2023-06-24T05:17:15;102398.0;;;40.89;20.83
59654;BME280;66556;52.008;5.432;2023-06-24T05:18:51;102400.0;;;41.71;20.66
59654;BME280;66556;52.008;5.432;2023-06-24T05:20:27;102402.0;;;41.75;20.41
59654;BME280;66556;52.008;5.432;2023-06-24T05:23:40;102401.0;;;41.39;20.72
59654;BME280;66556;52.008;5.432;2023-06-24T05:25:16;102395.0;;;41.83;20.23
59654;BME280;66556;52.008;5.432;2023-06-24T05:26:52;102393.0;;;42.31;19.59
59654;BME280;66556;52.008;5.432;2023-06-24T05:30:06;102398.0;;;41.64;20.45
59654;BME280;66556;52.008;5.432;2023-06-24T05:31:43;102401.0;;;42.22;19.8
59654;BME280;66556;52.008;5.432;2023-06-24T05:33:20;102394.0;;;42.51;19.7
59654;BME280;66556;52.008;5.432;2023-06-24T05:36:32;102399.0;;;42.46;19.59
59654;BME280;66556;52.008;5.432;2023-06-24T05:38:09;102398.0;;;43.37;18.48
59654;BME280;66556;52.008;5.432;2023-06-24T05:39:44;102401.0;;;44.18;17.48
59654;BME280;66556;52.008;5.432;2023-06-24T05:41:20;102408.99999999999;;;43.77;17.84
59654;BME280;66556;52.008;5.432;2023-06-24T05:44:33;102407.0;;;43.67;17.66
59654;BME280;66556;52.008;5.432;2023-06-24T05:46:09;102408.0;;;44.28;17.05
59654;BME280;66556;52.008;5.432;2023-06-24T05:47:45;102407.0;;;44.43;17.0
59654;BME280;66556;52.008;5.432;2023-06-24T05:50:57;102404.0;;;44.46;16.7
59654;BME280;66556;52.008;5.432;2023-06-24T05:52:33;102407.0;;;43.86;17.55
59654;BME280;66556;52.008;5.432;2023-06-24T05:54:10;102408.0;;;43.94;17.43
59654;BME280;66556;52.008;5.432;2023-06-24T05:57:22;102408.0;;;43.83;17.41
59654;BME280;66556;52.008;5.432;2023-06-24T05:58:58;102413.00000000001;;;44.01;17.41
59654;BME280;66556;52.008;5.432;2023-06-24T06:00:34;102408.0;;;43.5;17.45
59654;BME280;66556;52.008;5.432;2023-06-24T06:02:10;102406.0;;;44.54;16.84
59654;BME280;66556;52.008;5.432;2023-06-24T06:05:23;102403.0;;;44.68;16.7
59654;BME280;66556;52.008;5.432;2023-06-24T06:06:59;102400.0;;;44.92;16.48
59654;BME280;66556;52.008;5.432;2023-06-24T06:08:34;102403.0;;;45.18;16.37
59654;BME280;66556;52.008;5.432;2023-06-24T06:11:46;102406.0;;;45.43;15.93
59654;BME280;66556;52.008;5.432;2023-06-24T06:13:22;102407.0;;;45.72;15.87
59654;BME280;66556;52.008;5.432;2023-06-24T06:14:59;102413.00000000001;;;45.55;16.36
59654;BME280;66556;52.008;5.432;2023-06-24T06:18:12;102411.99999999999;;;45.79;15.45
59654;BME280;66556;52.008;5.432;2023-06-24T06:19:48;102413.00000000001;;;46.2;15.45
59654;BME280;66556;52.008;5.432;2023-06-24T06:21:24;102418.0;;;45.57;15.81
59654;BME280;66556;52.008;5.432;2023-06-24T06:24:36;102417.0;;;44.98;16.91
59654;BME280;66556;52.008;5.432;2023-06-24T06:26:12;102424.0;;;44.66;16.78
59654;BME280;66556;52.008;5.432;2023-06-24T06:27:49;102419.0;;;45.13;15.92
59654;BME280;66556;52.008;5.432;2023-06-24T06:29:25;102422.0;;;45.32;16.45
59654;BME280;66556;52.008;5.432;2023-06-24T06:32:37;102415.00000000001;;;45.57;15.62
59654;BME280;66556;52.008;5.432;2023-06-24T06:34:13;102411.99999999999;;;45.56;15.89
59654;BME280;66556;52.008;5.432;2023-06-24T06:35:49;102411.99999999999;;;45.05;16.52
59654;BME280;66556;52.008;5.432;2023-06-24T06:39:01;102417.0;;;44.61;16.54
59654;BME280;66556;52.008;5.432;2023-06-24T06:40:37;102415.00000000001;;;44.77;16.63
59654;BME280;66556;52.008;5.432;2023-06-24T06:42:14;102417.0;;;45.03;16.28
59654;BME280;66556;52.008;5.432;2023-06-24T06:45:29;102421.0;;;44.71;16.61
59654;BME280;66556;52.008;5.432;2023-06-24T06:47:06;102416.00000000001;;;45.93;14.94
59654;BME280;66556;52.008;5.432;2023-06-24T06:48:42;102415.00000000001;;;46.52;14.44
59654;BME280;66556;52.008;5.432;2023-06-24T06:50:18;102413.00000000001;;;47.1;14.82
59654;BME280;66556;52.008;5.432;2023-06-24T06:53:31;102411.99999999999;;;46.82;14.54
59654;BME280;66556;52.008;5.432;2023-06-24T06:55:07;102415.00000000001;;;46.01;15.4
59654;BME280;66556;52.008;5.432;2023-06-24T06:56:45;102407.0;;;46.56;15.16
59654;BME280;66556;52.008;5.432;2023-06-24T06:59:57;102414.00000000001;;;46.32;15.25
59654;BME280;66556;52.008;5.432;2023-06-24T07:01:33;102413.00000000001;;;46.47;15.62
59654;BME280;66556;52.008;5.432;2023-06-24T07:03:10;102419.0;;;47.16;14.75
59654;BME280;66556;52.008;5.432;2023-06-24T07:06:22;102417.0;;;46.59;15.18
59654;BME280;66556;52.008;5.432;2023-06-24T07:07:58;102417.0;;;46.65;15.1
59654;BME280;66556;52.008;5.432;2023-06-24T07:09:34;102417.0;;;47.43;14.31
59654;BME280;66556;52.008;5.432;2023-06-24T07:12:47;102420.0;;;47.19;14.83
59654;BME280;66556;52.008;5.432;2023-06-24T07:14:22;102416.00000000001;;;47.25;14.31
59654;BME280;66556;52.008;5.432;2023-06-24T07:15:59;102417.0;;;47.27;14.4
59654;BME280;66556;52.008;5.432;2023-06-24T07:17:35;102420.0;;;46.52;14.52
59654;BME280;66556;52.008;5.432;2023-06-24T07:20:47;102424.0;;;46.29;14.38
59654;BME280;66556;52.008;5.432;2023-06-24T07:23:59;102425.0;;;47.1;14.7
59654;BME280;66556;52.008;5.432;2023-06-24T07:27:11;102427.0;;;47.66;14.05
59654;BME280;66556;52.008;5.432;2023-06-24T07:28:48;102426.0;;;47.34;13.74
59654;BME280;66556;52.008;5.432;2023-06-24T07:30:24;102431.0;;;47.34;13.18
59654;BME280;66556;52.008;5.432;2023-06-24T07:33:36;102429.0;;;46.61;14.15
59654;BME280;66556;52.008;5.432;2023-06-24T07:35:12;102425.0;;;47.63;13.44
59654;BME280;66556;52.008;5.432;2023-06-24T07:36:48;102428.0;;;47.57;13.17
59654;BME280;66556;52.008;5.432;2023-06-24T07:40:01;102427.0;;;48.2;13.15
59654;BME280;66556;52.008;5.432;2023-06-24T07:41:37;102428.0;;;48.14;13.24
59654;BME280;66556;52.008;5.432;2023-06-24T07:43:13;102430.0;;;48.03;13.12
59654;BME280;66556;52.008;5.432;2023-06-24T07:44:49;102426.0;;;47.22;13.28
59654;BME280;66556;52.008;5.432;2023-06-24T07:48:01;102425.0;;;47.96;12.82
59654;BME280;66556;52.008;5.432;2023-06-24T07:49:37;102423.0;;;48.54;13.65
59654;BME280;66556;52.008;5.432;2023-06-24T07:51:14;102423.0;;;47.78;13.09
59654;BME280;66556;52.008;5.432;2023-06-24T07:54:26;102419.0;;;47.83;14.0
59654;BME280;66556;52.008;5.432;2023-06-24T07:56:02;102424.0;;;48.2;13.22
59654;BME280;66556;52.008;5.432;2023-06-24T07:57:39;102423.0;;;47.64;12.92
59654;BME280;66556;52.008;5.432;2023-06-24T08:00:52;102425.0;;;48.08;12.83
59654;BME280;66556;52.008;5.432;2023-06-24T08:02:28;102423.0;;;48.31;12.16
59654;BME280;66556;52.008;5.432;2023-06-24T08:04:04;102427.0;;;47.86;13.19
59654;BME280;66556;52.008;5.432;2023-06-24T08:05:40;102419.0;;;47.61;12.61
59654;BME280;66556;52.008;5.432;2023-06-24T08:08:52;102419.0;;;47.62;12.7
59654;BME280;66556;52.008;5.432;2023-06-24T08:10:28;102419.0;;;46.52;13.44
59654;BME280;66556;52.008;5.432;2023-06-24T08:12:05;102418.0;;;47.19;13.33
59654;BME280;66556;52.008;5.432;2023-06-24T08:15:17;102420.0;;;46.66;13.44
59654;BME280;66556;52.008;5.432;2023-06-24T08:16:54;102421.0;;;46.09;13.63
59654;BME280;66556;52.008;5.432;2023-06-24T08:18:30;102419.0;;;46.5;13.92
59654;BME280;66556;52.008;5.432;2023-06-24T08:21:43;102416.00000000001;;;46.64;14.14
59654;BME280;66556;52.008;5.432;2023-06-24T08:23:19;102420.0;;;47.95;12.86
59654;BME280;66556;52.008;5.432;2023-06-24T08:24:55;102409.99999999999;;;48.13;13.01
59654;BME280;66556;52.008;5.432;2023-06-24T08:28:08;102413.00000000001;;;46.51;13.17
59654;BME280;66556;52.008;5.432;2023-06-24T08:29:44;102406.0;;;46.96;13.83
59654;BME280;66556;52.008;5.432;2023-06-24T08:31:20;102413.00000000001;;;46.2;13.5
59654;BME280;66556;52.008;5.432;2023-06-24T08:32:56;102409.99999999999;;;46.74;13.58
59654;BME280;66556;52.008;5.432;2023-06-24T08:36:09;102408.99999999999;;;44.68;14.46
59654;BME280;66556;52.008;5.432;2023-06-24T08:37:45;102406.0;;;46.55;13.69
59654;BME280;66556;52.008;5.432;2023-06-24T08:39:21;102408.0;;;46.47;13.51
59654;BME280;66556;52.008;5.432;2023-06-24T08:42:34;102408.99999999999;;;47.83;13.02
59654;BME280;66556;52.008;5.432;2023-06-24T08:44:10;102408.99999999999;;;45.8;14.42
59654;BME280;66556;52.008;5.432;2023-06-24T08:45:47;102408.99999999999;;;46.35;14.34
59654;BME280;66556;52.008;5.432;2023-06-24T08:49:05;102408.99999999999;;;47.09;14.56
59654;BME280;66556;52.008;5.432;2023-06-24T08:50:52;102408.99999999999;;;46.73;13.79
59654;BME280;66556;52.008;5.432;2023-06-24T08:52:35;102405.0;;;47.66;14.4
59654;BME280;66556;52.008;5.432;2023-06-24T08:54:14;102403.0;;;48.71;13.46
59654;BME280;66556;52.008;5.432;2023-06-24T08:55:53;102405.0;;;47.47;13.55
59654;BME280;66556;52.008;5.432;2023-06-24T08:59:06;102406.0;;;48.6;13.23
59654;BME280;66556;52.008;5.432;2023-06-24T09:00:43;102403.0;;;48.8;13.81
59654;BME280;66556;52.008;5.432;2023-06-24T09:02:19;102401.0;;;49.49;14.01
59654;BME280;66556;52.008;5.432;2023-06-24T09:05:31;102403.0;;;48.79;13.81
59654;BME280;66556;52.008;5.432;2023-06-24T09:07:07;102397.0;;;49.78;12.9
59654;BME280;66556;52.008;5.432;2023-06-24T09:08:52;102398.0;;;49.51;13.0
59654;BME280;66556;52.008;5.432;2023-06-24T09:10:30;102393.0;;;50.04;12.52
59654;BME280;66556;52.008;5.432;2023-06-24T09:13:47;102397.0;;;50.42;11.54
59654;BME280;66556;52.008;5.432;2023-06-24T09:15:23;102398.0;;;50.76;11.6
59654;BME280;66556;52.008;5.432;2023-06-24T09:17:00;102399.0;;;50.52;12.08
59654;BME280;66556;52.008;5.432;2023-06-24T09:20:12;102396.0;;;51.02;11.44
59654;BME280;66556;52.008;5.432;2023-06-24T09:21:49;102392.0;;;51.07;12.21
59654;BME280;66556;52.008;5.432;2023-06-24T09:23:25;102392.0;;;51.16;11.75
59654;BME280;66556;52.008;5.432;2023-06-24T09:26:38;102395.0;;;51.2;11.55
59654;BME280;66556;52.008;5.432;2023-06-24T09:28:14;102393.0;;;50.77;12.05
59654;BME280;66556;52.008;5.432;2023-06-24T09:29:50;102395.0;;;51.26;11.62
59654;BME280;66556;52.008;5.432;2023-06-24T09:31:27;102393.0;;;51.0;11.85
59654;BME280;66556;52.008;5.432;2023-06-24T09:34:39;102383.0;;;50.53;12.54
59654;BME280;66556;52.008;5.432;2023-06-24T09:36:16;102381.0;;;49.78;11.97
59654;BME280;66556;52.008;5.432;2023-06-24T09:37:52;102381.0;;;50.7;11.88
59654;BME280;66556;52.008;5.432;2023-06-24T09:41:13;102382.0;;;50.65;11.87
59654;BME280;66556;52.008;5.432;2023-06-24T09:42:51;102382.0;;;50.96;12.01
59654;BME280;66556;52.008;5.432;2023-06-24T09:44:29;102385.0;;;49.78;12.35
59654;BME280;66556;52.008;5.432;2023-06-24T09:46:06;102380.0;;;50.76;11.49
59654;BME280;66556;52.008;5.432;2023-06-24T09:49:19;102378.0;;;50.01;11.59
59654;BME280;66556;52.008;5.432;2023-06-24T09:50:57;102377.0;;;51.15;12.34
59654;BME280;66556;52.008;5.432;2023-06-24T09:52:35;102372.0;;;51.51;11.65
59654;BME280;66556;52.008;5.432;2023-06-24T09:55:50;102374.0;;;51.32;11.15
59654;BME280;66556;52.008;5.432;2023-06-24T09:57:31;102374.0;;;51.2;11.61
59654;BME280;66556;52.008;5.432;2023-06-24T09:59:08;102377.0;;;50.96;11.3
59654;BME280;66556;52.008;5.432;2023-06-24T10:00:45;102371.0;;;51.25;11.56
59654;BME280;66556;52.008;5.432;2023-06-24T10:03:59;102371.0;;;51.29;11.42
59654;BME280;66556;52.008;5.432;2023-06-24T10:05:37;102369.0;;;49.93;12.28
59654;BME280;66556;52.008;5.432;2023-06-24T10:10:28;102370.0;;;51.36;11.39
59654;BME280;66556;52.008;5.432;2023-06-24T10:12:05;102372.0;;;51.14;12.04
59654;BME280;66556;52.008;5.432;2023-06-24T10:13:41;102371.0;;;51.25;11.49
59654;BME280;66556;52.008;5.432;2023-06-24T10:17:01;102374.0;;;51.18;11.42
59654;BME280;66556;52.008;5.432;2023-06-24T10:18:39;102374.0;;;50.61;12.68
59654;BME280;66556;52.008;5.432;2023-06-24T10:20:23;102366.0;;;50.3;12.03
59654;BME280;66556;52.008;5.432;2023-06-24T10:22:00;102368.0;;;50.5;12.19
59654;BME280;66556;52.008;5.432;2023-06-24T10:25:17;102368.0;;;51.14;12.08
59654;BME280;66556;52.008;5.432;2023-06-24T10:26:54;102369.0;;;50.89;11.66
59654;BME280;66556;52.008;5.432;2023-06-24T10:29:08;102368.0;;;50.72;11.41
59654;BME280;66556;52.008;5.432;2023-06-24T10:30:54;102364.0;;;49.83;12.08
59654;BME280;66556;52.008;5.432;2023-06-24T10:32:40;102365.0;;;50.7;12.14
59654;BME280;66556;52.008;5.432;2023-06-24T10:34:24;102360.0;;;51.22;11.76
59654;BME280;66556;52.008;5.432;2023-06-24T10:37:36;102364.0;;;50.99;12.41
59654;BME280;66556;52.008;5.432;2023-06-24T10:39:35;102357.0;;;51.33;11.68
59654;BME280;66556;52.008;5.432;2023-06-24T10:41:15;102357.0;;;51.82;11.66
59654;BME280;66556;52.008;5.432;2023-06-24T10:42:51;102352.0;;;51.57;11.54
59654;BME280;66556;52.008;5.432;2023-06-24T10:46:14;102355.0;;;52.24;11.62
59654;BME280;66556;52.008;5.432;2023-06-24T10:47:51;102356.0;;;51.9;11.09
59654;BME280;66556;52.008;5.432;2023-06-24T10:49:28;102351.0;;;52.42;10.94
59654;BME280;66556;52.008;5.432;2023-06-24T10:51:04;102350.0;;;52.1;12.67
59654;BME280;66556;52.008;5.432;2023-06-24T10:54:18;102347.0;;;51.83;12.5
59654;BME280;66556;52.008;5.432;2023-06-24T10:55:57;102342.0;;;51.24;11.54
59654;BME280;66556;52.008;5.432;2023-06-24T10:57:34;102348.0;;;50.76;12.96
59654;BME280;66556;52.008;5.432;2023-06-24T11:00:46;102344.0;;;51.25;12.35
59654;BME280;66556;52.008;5.432;2023-06-24T11:02:23;102336.0;;;51.95;11.93
59654;BME280;66556;52.008;5.432;2023-06-24T11:04:05;102341.0;;;51.05;11.99
59654;BME280;66556;52.008;5.432;2023-06-24T11:05:42;102342.0;;;52.0;11.77